Time;durP1;ratioP1;P1;durP2;ratioP2;P2;SDS_P1;SDS_P2;PMS_P1;PMS_P2;Temp;Humidity;BMP_temperature;BMP_pressure;BME280_temperature;BME280_humidity;BME280_pressure;Samples;Min_cycle;Max_cycle;Signal;HPM_P1;HPM_P2
2023/03/08 00:01:39;;;;;;;4.27;2.10;;;-2.00;99.90;;;;;;5053464;28;20094;-23
2023/03/08 00:04:04;;;;;;;8.53;1.90;;;-2.00;99.90;;;;;;5054584;28;20049;-23
2023/03/08 00:06:30;;;;;;;3.70;1.73;;;-2.00;99.90;;;;;;5054394;28;20137;-23
2023/03/08 00:08:58;;;;;;;4.00;2.13;;;-1.00;99.90;;;;;;5054499;28;20055;-23
2023/03/08 00:11:25;;;;;;;6.07;3.13;;;-2.10;99.90;;;;;;5054425;28;20465;-23
2023/03/08 00:13:51;;;;;;;7.53;2.30;;;-2.20;99.90;;;;;;5053135;28;20045;-23
2023/03/08 00:16:16;;;;;;;9.90;2.37;;;-2.30;99.90;;;;;;5053943;28;20090;-23
2023/03/08 00:18:42;;;;;;;9.60;1.80;;;-1.90;99.90;;;;;;5053892;28;20053;-23
2023/03/08 00:21:14;;;;;;;5.33;2.00;;;-2.30;99.90;;;;;;5054282;28;20086;-23
2023/03/08 00:23:40;;;;;;;3.37;1.73;;;-2.40;99.90;;;;;;5054505;28;20384;-23
2023/03/08 00:26:06;;;;;;;3.63;1.57;;;-2.30;99.90;;;;;;5054157;28;20495;-23
2023/03/08 00:28:32;;;;;;;6.67;1.93;;;-2.40;99.90;;;;;;5054149;28;20045;-23
2023/03/08 00:31:06;;;;;;;3.20;1.33;;;-2.30;99.90;;;;;;5054115;28;20045;-23
2023/03/08 00:33:32;;;;;;;7.13;1.83;;;-2.20;99.90;;;;;;5053139;28;20045;-23
2023/03/08 00:36:04;;;;;;;5.57;1.40;;;-2.30;99.90;;;;;;5054006;28;20053;-23
2023/03/08 00:38:32;;;;;;;8.03;1.30;;;-2.30;99.90;;;;;;5054019;28;20049;-23
2023/03/08 00:40:58;;;;;;;3.23;1.40;;;-2.30;99.90;;;;;;5053954;28;20214;-23
2023/03/08 00:43:24;;;;;;;6.07;1.47;;;-2.30;99.90;;;;;;5053896;28;20457;-23
2023/03/08 00:45:50;;;;;;;4.60;1.40;;;-2.10;99.90;;;;;;5053828;28;20049;-23
2023/03/08 00:48:16;;;;;;;5.43;1.20;;;-2.10;99.90;;;;;;5053668;28;20059;-23
2023/03/08 00:50:42;;;;;;;5.30;1.30;;;-2.20;99.90;;;;;;5052631;28;20067;-23
2023/03/08 00:53:08;;;;;;;5.90;1.57;;;-2.40;99.90;;;;;;5052198;28;20381;-23
2023/03/08 00:55:34;;;;;;;3.77;1.00;;;-2.60;99.90;;;;;;5053711;28;20052;-23
2023/03/08 00:58:00;;;;;;;6.70;1.20;;;-2.80;99.90;;;;;;5053569;28;20048;-23
2023/03/08 01:00:26;;;;;;;4.00;1.00;;;-2.90;99.90;;;;;;5053712;28;20151;-23
2023/03/08 01:02:52;;;;;;;2.90;1.00;;;-3.00;99.90;;;;;;5054478;28;20045;-23
2023/03/08 01:05:18;;;;;;;7.23;1.00;;;-3.20;99.90;;;;;;5052464;28;20044;-23
2023/03/08 01:07:44;;;;;;;2.93;0.83;;;-3.20;99.90;;;;;;5035937;28;20076;-23
2023/03/08 01:10:10;;;;;;;3.70;0.63;;;-3.30;99.90;;;;;;5052871;28;20076;-23
2023/03/08 01:12:36;;;;;;;6.13;1.00;;;-3.40;99.90;;;;;;5053979;28;20122;-23
2023/03/08 01:15:04;;;;;;;6.83;1.80;;;-3.30;99.90;;;;;;5053563;28;20110;-23
2023/03/08 01:17:31;;;;;;;4.67;0.97;;;-3.40;99.90;;;;;;5053298;28;20041;-23
2023/03/08 01:19:57;;;;;;;6.17;1.10;;;-3.40;99.90;;;;;;5054072;28;20044;-23
2023/03/08 01:22:23;;;;;;;2.80;1.00;;;-3.40;99.90;;;;;;5052766;28;20049;-23
2023/03/08 01:24:48;;;;;;;6.10;1.10;;;-3.40;99.90;;;;;;5053471;28;20056;-22
2023/03/08 01:27:15;;;;;;;4.50;0.97;;;-3.30;99.90;;;;;;5053427;28;20131;-22
2023/03/08 01:29:42;;;;;;;3.17;0.93;;;-3.20;99.90;;;;;;5053217;28;20122;-23
2023/03/08 01:32:08;;;;;;;6.03;1.10;;;-3.20;99.90;;;;;;5053265;28;20041;-23
2023/03/08 01:34:37;;;;;;;5.90;1.20;;;-3.20;99.90;;;;;;5054167;28;20398;-22
2023/03/08 01:37:04;;;;;;;3.13;1.00;;;-3.30;99.90;;;;;;5035699;28;20049;-23
2023/03/08 01:39:30;;;;;;;5.77;0.70;;;-3.30;99.90;;;;;;5035745;28;20407;-22
2023/03/08 01:41:56;;;;;;;3.77;1.33;;;-3.40;99.90;;;;;;5052583;28;20059;-22
2023/03/08 01:44:22;;;;;;;4.23;1.03;;;-3.50;99.90;;;;;;5053222;28;20548;-22
2023/03/08 01:46:48;;;;;;;1.50;0.60;;;-3.60;99.90;;;;;;5053298;28;20053;-23
2023/03/08 01:49:33;;;;;;;2.93;0.60;;;-3.60;99.90;;;;;;5053815;28;20053;-22
2023/03/08 01:52:01;;;;;;;2.43;0.50;;;-3.60;99.90;;;;;;5051964;28;20053;-22
2023/03/08 01:54:45;;;;;;;7.07;2.07;;;-3.40;99.90;;;;;;5053388;28;20077;-23
2023/03/08 01:57:28;;;;;;;0.97;0.57;;;-2.90;99.90;;;;;;5053171;28;20041;-23
2023/03/08 02:00:10;;;;;;;3.70;0.40;;;-2.60;99.90;;;;;;5053981;28;20123;-23
2023/03/08 02:03:00;;;;;;;4.13;0.40;;;-2.20;99.90;;;;;;5056084;28;20044;-22
2023/03/08 02:05:26;;;;;;;2.10;0.40;;;-1.70;99.90;;;;;;5055855;28;20483;-22
2023/03/08 02:07:52;;;;;;;2.53;0.47;;;-1.40;99.90;;;;;;5039111;28;20502;-23
2023/03/08 02:10:18;;;;;;;2.73;0.40;;;-1.30;99.90;;;;;;5057571;28;20044;-22
2023/03/08 02:12:45;;;;;;;2.83;0.30;;;-1.20;99.90;;;;;;5056685;28;20052;-22
2023/03/08 02:15:13;;;;;;;4.40;0.60;;;-1.20;99.90;;;;;;5038851;28;20045;-22
2023/03/08 02:17:41;;;;;;;3.33;0.30;;;-1.30;99.90;;;;;;5056332;28;20060;-22
2023/03/08 02:20:28;;;;;;;5.77;0.50;;;-1.30;99.90;;;;;;5056601;28;20491;-23
2023/03/08 02:22:54;;;;;;;1.80;0.27;;;-1.20;99.90;;;;;;5056867;28;20131;-22
2023/03/08 02:25:23;;;;;;;1.20;0.30;;;-1.20;99.90;;;;;;5055580;28;20080;-23
2023/03/08 02:27:51;;;;;;;2.30;0.50;;;-1.20;99.90;;;;;;5056415;28;20049;-22
2023/03/08 02:30:23;;;;;;;4.70;0.60;;;-1.20;99.90;;;;;;5056198;28;20045;-22
2023/03/08 02:32:49;;;;;;;3.53;0.30;;;-1.30;99.90;;;;;;5056580;28;20045;-22
2023/03/08 02:35:15;;;;;;;1.87;0.37;;;-1.30;99.90;;;;;;5056296;28;20083;-22
2023/03/08 02:37:41;;;;;;;3.50;0.50;;;-1.30;99.90;;;;;;5056769;28;20075;-22
2023/03/08 02:40:08;;;;;;;3.23;0.40;;;-1.30;99.90;;;;;;5056204;28;20045;-23
2023/03/08 02:42:33;;;;;;;2.37;0.20;;;-1.30;99.90;;;;;;5038480;28;20472;-22
2023/03/08 02:44:59;;;;;;;0.80;0.13;;;-1.40;99.90;;;;;;5056185;28;20056;-22
2023/03/08 02:47:25;;;;;;;3.03;0.40;;;-1.30;99.90;;;;;;5056074;28;20053;-22
2023/03/08 02:49:51;;;;;;;1.00;0.20;;;-1.50;99.90;;;;;;5054825;28;20060;-22
2023/03/08 02:52:17;;;;;;;2.73;0.43;;;-1.60;99.90;;;;;;5055926;28;20120;-22
2023/03/08 02:54:43;;;;;;;3.60;0.23;;;-1.80;99.90;;;;;;5056014;28;20175;-22
2023/03/08 02:57:08;;;;;;;0.73;0.33;;;-1.90;99.90;;;;;;5055943;28;20087;-22
2023/03/08 02:59:34;;;;;;;3.60;0.40;;;-2.10;99.90;;;;;;5056107;28;20045;-22
2023/03/08 03:02:00;;;;;;;6.37;1.20;;;-2.20;99.90;;;;;;5054871;28;20041;-22
2023/03/08 03:04:30;;;;;;;5.67;0.50;;;-2.20;99.90;;;;;;5038268;28;20098;-22
2023/03/08 03:06:57;;;;;;;2.50;0.47;;;-2.20;99.90;;;;;;5055622;28;20045;-22
2023/03/08 03:09:24;;;;;;;2.10;0.40;;;-2.30;99.90;;;;;;5054188;28;20383;-22
2023/03/08 03:11:49;;;;;;;2.10;0.50;;;-2.40;99.90;;;;;;5055787;28;20056;-23
2023/03/08 03:14:15;;;;;;;4.70;0.80;;;-2.60;99.90;;;;;;5055549;28;20049;-22
2023/03/08 03:16:41;;;;;;;4.77;0.80;;;-2.70;99.90;;;;;;5056062;28;20495;-22
2023/03/08 03:19:07;;;;;;;2.83;0.50;;;-2.80;99.90;;;;;;5055458;28;20089;-22
2023/03/08 03:21:33;;;;;;;4.97;0.73;;;-2.70;99.90;;;;;;5055461;28;20052;-22
2023/03/08 03:23:59;;;;;;;3.40;0.80;;;-2.70;99.90;;;;;;5055394;28;20045;-23
2023/03/08 03:26:25;;;;;;;2.33;0.67;;;-2.70;99.90;;;;;;5055023;28;20041;-22
2023/03/08 03:28:54;;;;;;;4.03;0.80;;;-2.80;99.90;;;;;;5037993;28;20049;-22
2023/03/08 03:31:22;;;;;;;6.20;1.00;;;-2.90;99.90;;;;;;5054901;28;20403;-23
2023/03/08 03:33:49;;;;;;;4.07;0.80;;;-3.10;99.90;;;;;;5055658;28;20045;-23
2023/03/08 03:36:17;;;;;;;3.20;0.97;;;-2.90;99.90;;;;;;5037568;28;20060;-22
2023/03/08 03:38:43;;;;;;;4.43;0.90;;;-3.20;99.90;;;;;;5055355;28;20041;-23
2023/03/08 03:41:18;;;;;;;3.87;1.00;;;-3.30;99.90;;;;;;5055053;28;20110;-23
2023/03/08 03:43:44;;;;;;;5.37;0.83;;;-3.40;99.90;;;;;;5055227;28;20395;-23
2023/03/08 03:46:12;;;;;;;3.33;0.63;;;-3.40;99.90;;;;;;5054026;28;20091;-23
2023/03/08 03:48:38;;;;;;;3.60;0.80;;;-3.40;99.90;;;;;;5054331;28;20132;-22
2023/03/08 03:51:06;;;;;;;3.53;1.47;;;-3.30;99.90;;;;;;5055684;28;20041;-23
2023/03/08 03:53:34;;;;;;;3.63;0.70;;;-3.10;99.90;;;;;;5053851;28;20052;-22
2023/03/08 03:56:18;;;;;;;4.57;1.13;;;-3.20;99.90;;;;;;5054086;28;20049;-22
2023/03/08 03:58:44;;;;;;;2.93;0.73;;;-3.30;99.90;;;;;;5054729;28;20053;-23
2023/03/08 04:01:16;;;;;;;7.07;0.60;;;-3.40;99.90;;;;;;5037118;28;20056;-23
2023/03/08 04:03:42;;;;;;;2.90;0.70;;;-3.40;99.90;;;;;;5053518;28;20041;-22
2023/03/08 04:06:22;;;;;;;7.30;1.40;;;-3.30;99.90;;;;;;5054599;28;20041;-22
2023/03/08 04:08:50;;;;;;;1.13;0.50;;;-3.20;99.90;;;;;;5037274;28;20057;-23
2023/03/08 04:11:20;;;;;;;2.87;0.77;;;-3.00;99.90;;;;;;5054468;28;20105;-22
2023/03/08 04:13:46;;;;;;;1.97;0.60;;;-2.90;99.90;;;;;;5054377;28;20071;-22
2023/03/08 04:16:23;;;;;;;4.27;0.77;;;-2.90;99.90;;;;;;5054373;28;20475;-23
2023/03/08 04:18:54;;;;;;;5.77;0.87;;;-2.90;99.90;;;;;;5054210;28;20076;-23
2023/03/08 04:21:20;;;;;;;2.60;0.73;;;-2.90;99.90;;;;;;5054302;28;20056;-23
2023/03/08 04:23:47;;;;;;;4.83;1.10;;;-2.80;99.90;;;;;;5053882;28;20048;-23
2023/03/08 04:26:13;;;;;;;5.37;0.83;;;-2.40;99.90;;;;;;5055000;28;20068;-22
2023/03/08 04:28:40;;;;;;;6.70;0.90;;;-2.80;99.90;;;;;;5054159;28;20045;-22
2023/03/08 04:31:21;;;;;;;4.90;0.77;;;-2.80;99.90;;;;;;5054951;28;20055;-22
2023/03/08 04:33:47;;;;;;;4.30;1.20;;;-2.90;99.90;;;;;;5052841;28;20055;-22
2023/03/08 04:36:14;;;;;;;3.07;0.70;;;-3.00;99.90;;;;;;5054568;28;20045;-23
2023/03/08 04:38:40;;;;;;;5.00;0.97;;;-3.00;99.90;;;;;;5052904;28;20051;-22
2023/03/08 04:41:12;;;;;;;2.10;0.70;;;-3.00;99.90;;;;;;5052787;28;20041;-22
2023/03/08 04:43:46;;;;;;;5.27;1.47;;;-2.90;99.90;;;;;;5053939;28;20040;-22
2023/03/08 04:46:12;;;;;;;3.37;1.10;;;-2.80;99.90;;;;;;5036333;28;20395;-22
2023/03/08 04:48:38;;;;;;;4.23;1.03;;;-2.80;99.90;;;;;;5052874;28;20057;-22
2023/03/08 04:51:06;;;;;;;3.73;0.80;;;-2.90;99.90;;;;;;5053876;28;20134;-22
2023/03/08 04:53:32;;;;;;;4.23;0.70;;;-2.90;99.90;;;;;;5053661;28;20502;-22
2023/03/08 04:55:59;;;;;;;3.10;0.90;;;-3.00;99.90;;;;;;5052648;28;20525;-23
2023/03/08 04:58:26;;;;;;;1.70;0.80;;;-3.10;99.90;;;;;;5036136;28;20407;-23
2023/03/08 05:00:52;;;;;;;6.07;1.07;;;-3.10;99.90;;;;;;5052188;28;20499;-23
2023/03/08 05:03:18;;;;;;;3.63;0.60;;;-3.20;99.90;;;;;;5053609;28;20041;-22
2023/03/08 05:05:49;;;;;;;5.97;0.90;;;-3.20;99.90;;;;;;5053665;28;20453;-23
2023/03/08 05:08:15;;;;;;;2.80;0.73;;;-3.20;99.90;;;;;;5037075;28;20053;-23
2023/03/08 05:10:57;;;;;;;1.57;0.77;;;-2.80;99.90;;;;;;5053582;28;20135;-22
2023/03/08 05:13:28;;;;;;;12.73;2.87;;;-3.10;99.90;;;;;;5052109;28;20045;-23
2023/03/08 05:15:54;;;;;;;7.43;1.67;;;-3.20;99.90;;;;;;5036320;28;20064;-23
2023/03/08 05:18:20;;;;;;;4.80;0.90;;;-3.10;99.90;;;;;;5053128;28;20558;-22
2023/03/08 05:21:13;;;;;;;2.10;0.77;;;-3.20;99.90;;;;;;5053441;28;20037;-23
2023/03/08 05:23:40;;;;;;;4.78;0.98;;;-3.10;99.90;;;;;;5052044;28;20056;-23
2023/03/08 05:26:07;;;;;;;8.60;1.77;;;-3.10;99.90;;;;;;5035593;28;20127;-22
2023/03/08 05:28:35;;;;;;;6.07;0.80;;;-3.00;99.90;;;;;;5053342;28;20052;-23
2023/03/08 05:31:03;;;;;;;3.77;1.00;;;-3.10;99.90;;;;;;5053339;28;20053;-23
2023/03/08 05:33:28;;;;;;;3.83;0.97;;;-3.00;99.90;;;;;;5052673;28;20127;-23
2023/03/08 05:35:55;;;;;;;3.63;0.93;;;-3.10;99.90;;;;;;5038161;28;20187;-23
2023/03/08 05:38:21;;;;;;;5.13;1.20;;;-2.80;99.90;;;;;;5057343;28;20051;-23
2023/03/08 05:40:48;;;;;;;3.60;1.20;;;-3.10;99.90;;;;;;5039920;28;20132;-23
2023/03/08 05:43:14;;;;;;;8.77;3.13;;;-3.10;99.90;;;;;;5057157;28;20041;-23
2023/03/08 05:45:41;;;;;;;4.23;1.00;;;-3.10;99.90;;;;;;5057031;28;20514;-22
2023/03/08 05:48:07;;;;;;;5.43;0.83;;;-3.00;99.90;;;;;;5057099;28;20132;-23
2023/03/08 05:50:32;;;;;;;2.53;1.30;;;-3.00;99.90;;;;;;5057012;28;20049;-23
2023/03/08 05:52:58;;;;;;;6.63;1.20;;;-3.10;99.90;;;;;;5055861;28;20041;-23
2023/03/08 05:55:24;;;;;;;4.17;1.57;;;-3.00;99.90;;;;;;5039184;28;20051;-23
2023/03/08 05:57:50;;;;;;;3.43;1.20;;;-3.00;99.90;;;;;;5057018;28;20450;-23
2023/03/08 06:00:16;;;;;;;3.40;0.97;;;-3.00;99.90;;;;;;5056006;28;20471;-23
2023/03/08 06:02:42;;;;;;;4.57;1.07;;;-3.10;99.90;;;;;;5040136;28;20041;-23
2023/03/08 06:05:08;;;;;;;2.70;0.83;;;-3.10;99.90;;;;;;5057366;28;20174;-23
2023/03/08 06:07:34;;;;;;;3.73;1.27;;;-3.10;99.90;;;;;;5055475;28;20518;-23
2023/03/08 06:10:00;;;;;;;6.80;2.07;;;-3.10;99.90;;;;;;5056553;28;20081;-23
2023/03/08 06:12:25;;;;;;;4.30;1.10;;;-3.10;99.90;;;;;;5056654;28;20132;-23
2023/03/08 06:14:51;;;;;;;3.13;1.47;;;-3.20;99.90;;;;;;5055483;28;20131;-22
2023/03/08 06:17:17;;;;;;;9.17;2.57;;;-3.20;99.90;;;;;;5055327;28;20044;-23
2023/03/08 06:19:43;;;;;;;4.23;0.97;;;-3.30;99.90;;;;;;5056482;28;20061;-23
2023/03/08 06:22:09;;;;;;;3.90;1.33;;;-3.20;99.90;;;;;;5055387;28;20480;-23
2023/03/08 06:24:35;;;;;;;3.70;1.20;;;-3.10;99.90;;;;;;5055355;28;20557;-23
2023/03/08 06:27:00;;;;;;;5.67;1.30;;;-3.10;99.90;;;;;;5055825;28;20045;-23
2023/03/08 06:29:26;;;;;;;5.93;1.40;;;-3.10;99.90;;;;;;5056406;28;20049;-23
2023/03/08 06:31:52;;;;;;;3.57;1.20;;;-3.10;99.90;;;;;;5057092;28;20045;-23
2023/03/08 06:34:18;;;;;;;3.23;1.10;;;-3.00;99.90;;;;;;5038689;28;20393;-23
2023/03/08 06:36:44;;;;;;;4.70;1.30;;;-3.00;99.90;;;;;;5055123;28;20443;-23
2023/03/08 06:39:10;;;;;;;5.67;1.40;;;-3.00;99.90;;;;;;5038768;28;20053;-23
2023/03/08 06:41:36;;;;;;;6.47;1.37;;;-2.90;99.90;;;;;;5055888;28;20045;-23
2023/03/08 06:44:02;;;;;;;2.83;1.47;;;-2.90;99.90;;;;;;5055199;28;20114;-23
2023/03/08 06:46:28;;;;;;;4.47;1.37;;;-2.80;99.90;;;;;;5054249;28;20045;-23
2023/03/08 06:48:54;;;;;;;9.43;1.47;;;-2.80;99.90;;;;;;5056075;28;20045;-23
2023/03/08 06:51:20;;;;;;;4.33;1.30;;;-2.80;99.90;;;;;;5055105;28;20053;-23
2023/03/08 06:53:47;;;;;;;4.73;1.20;;;-2.70;99.90;;;;;;5055885;28;20048;-23
2023/03/08 06:56:14;;;;;;;4.17;1.30;;;-2.60;99.90;;;;;;5055946;28;20045;-23
2023/03/08 06:58:41;;;;;;;5.43;1.57;;;-2.60;99.90;;;;;;5056181;28;20053;-23
2023/03/08 07:01:08;;;;;;;4.13;1.43;;;-2.50;99.90;;;;;;5055850;28;20098;-23
2023/03/08 07:03:34;;;;;;;3.70;1.33;;;-2.50;99.90;;;;;;5038655;28;20060;-23
2023/03/08 07:06:08;;;;;;;4.80;1.57;;;-2.40;99.90;;;;;;5055796;28;20052;-22
2023/03/08 07:08:36;;;;;;;7.90;1.53;;;-2.30;99.90;;;;;;5054617;28;20060;-23
2023/03/08 07:11:02;;;;;;;7.07;2.03;;;-1.80;99.90;;;;;;5055642;28;20055;-23
2023/03/08 07:13:28;;;;;;;6.93;1.50;;;-2.10;99.90;;;;;;5055559;28;20392;-23
2023/03/08 07:15:55;;;;;;;8.20;1.80;;;-2.00;99.90;;;;;;5055569;28;20048;-23
2023/03/08 07:18:21;;;;;;;7.10;1.63;;;-2.00;99.90;;;;;;5055296;28;20067;-23
2023/03/08 07:20:55;;;;;;;6.17;1.50;;;-1.90;99.90;;;;;;5054318;28;20053;-23
2023/03/08 07:23:21;;;;;;;2.37;1.30;;;-1.90;99.90;;;;;;5054461;28;20051;-23
2023/03/08 07:25:47;;;;;;;6.37;1.20;;;-1.90;99.90;;;;;;5055957;28;20384;-23
2023/03/08 07:28:13;;;;;;;4.50;1.90;;;-1.80;99.90;;;;;;5054357;28;20063;-23
2023/03/08 07:30:38;;;;;;;4.33;1.47;;;-1.70;99.90;;;;;;5054050;28;20045;-23
2023/03/08 07:33:04;;;;;;;5.97;1.30;;;-1.80;99.90;;;;;;5054100;28;20055;-23
2023/03/08 07:35:30;;;;;;;7.23;1.60;;;-1.70;99.90;;;;;;5055493;28;20045;-23
2023/03/08 07:37:56;;;;;;;4.00;1.30;;;-1.70;99.90;;;;;;5054194;28;20041;-23
2023/03/08 07:40:22;;;;;;;8.47;1.77;;;-1.60;99.90;;;;;;5054152;28;20098;-23
2023/03/08 07:42:48;;;;;;;4.73;2.03;;;-1.50;99.90;;;;;;5055049;28;20441;-23
2023/03/08 07:45:14;;;;;;;4.07;2.03;;;-1.40;99.90;;;;;;5055071;28;20056;-23
2023/03/08 07:47:40;;;;;;;7.50;3.77;;;-1.30;99.90;;;;;;5054649;28;20044;-23
2023/03/08 07:50:07;;;;;;;7.17;2.73;;;-1.10;99.90;;;;;;5054875;28;20128;-22
2023/03/08 07:52:33;;;;;;;8.63;2.07;;;-1.00;99.90;;;;;;5053543;28;20041;-23
2023/03/08 07:55:01;;;;;;;5.87;2.10;;;-0.80;99.90;;;;;;5037805;28;20106;-22
2023/03/08 07:57:26;;;;;;;8.57;2.63;;;-0.80;99.90;;;;;;5055308;28;20129;-23
2023/03/08 07:59:52;;;;;;;5.77;2.97;;;-0.70;99.90;;;;;;5053683;28;20107;-23
2023/03/08 08:02:18;;;;;;;4.97;2.10;;;-0.60;99.90;;;;;;5054524;28;20045;-23
2023/03/08 08:04:44;;;;;;;5.87;2.03;;;-0.40;99.90;;;;;;5054021;28;20055;-22
2023/03/08 08:07:13;;;;;;;5.07;2.37;;;-0.10;99.90;;;;;;5054491;28;20052;-22
2023/03/08 08:09:38;;;;;;;4.77;2.07;;;-0.20;99.90;;;;;;5054770;28;20379;-22
2023/03/08 08:12:05;;;;;;;6.17;2.50;;;-0.20;99.90;;;;;;5054930;28;20049;-22
2023/03/08 08:14:31;;;;;;;5.80;2.40;;;-0.20;99.90;;;;;;5054397;28;20059;-22
2023/03/08 08:16:57;;;;;;;8.30;2.80;;;-0.10;99.90;;;;;;5054426;28;20052;-23
2023/03/08 08:19:23;;;;;;;4.97;3.17;;;-0.10;99.90;;;;;;5053893;28;20048;-22
2023/03/08 08:21:49;;;;;;;6.30;3.67;;;0.00;99.90;;;;;;5053968;28;20483;-22
2023/03/08 08:24:15;;;;;;;8.67;5.30;;;0.10;99.90;;;;;;5054314;28;20049;-23
2023/03/08 08:26:41;;;;;;;7.00;3.73;;;0.20;99.90;;;;;;5054264;28;20048;-22
2023/03/08 08:29:07;;;;;;;5.57;3.40;;;0.40;99.90;;;;;;5054734;28;20049;-22
2023/03/08 08:31:33;;;;;;;6.03;2.73;;;0.50;99.90;;;;;;5054437;28;20475;-22
2023/03/08 08:33:59;;;;;;;5.73;3.20;;;0.70;99.90;;;;;;5052844;28;20505;-22
2023/03/08 08:36:25;;;;;;;9.03;3.10;;;1.00;99.90;;;;;;5054038;28;20049;-22
2023/03/08 08:38:52;;;;;;;7.40;3.00;;;1.00;99.90;;;;;;5053419;28;20049;-22
2023/03/08 08:41:22;;;;;;;7.17;3.40;;;1.20;99.90;;;;;;5052871;28;20505;-23
2023/03/08 08:43:48;;;;;;;6.23;3.60;;;1.30;99.90;;;;;;5054213;28;20048;-22
2023/03/08 08:46:15;;;;;;;5.93;2.80;;;1.50;99.90;;;;;;5053954;28;20048;-22
2023/03/08 08:48:41;;;;;;;8.13;3.13;;;1.50;99.90;;;;;;5053560;28;20402;-22
2023/03/08 08:51:08;;;;;;;6.37;2.73;;;1.70;99.90;;;;;;5053798;28;20036;-22
2023/03/08 08:53:35;;;;;;;4.73;2.83;;;1.40;99.90;;;;;;5054005;28;20041;-22
2023/03/08 08:56:12;;;;;;;7.60;3.30;;;1.30;99.90;;;;;;5053037;28;20391;-23
2023/03/08 08:58:38;;;;;;;9.67;3.10;;;1.50;99.90;;;;;;5052759;28;20053;-23
2023/03/08 09:01:04;;;;;;;8.03;3.33;;;1.70;99.90;;;;;;5054227;28;20110;-23
2023/03/08 09:03:29;;;;;;;12.13;5.70;;;1.70;99.90;;;;;;5052781;28;20152;-23
2023/03/08 09:05:57;;;;;;;7.70;3.50;;;1.80;99.90;;;;;;5053638;28;20454;-23
2023/03/08 09:08:22;;;;;;;9.37;3.77;;;2.00;99.90;;;;;;5053447;28;20041;-23
2023/03/08 09:10:48;;;;;;;6.50;3.70;;;2.10;99.90;;;;;;5052094;28;20207;-23
2023/03/08 09:13:15;;;;;;;8.57;4.07;;;2.20;99.90;;;;;;5053505;28;20118;-24
2023/03/08 09:15:41;;;;;;;6.63;3.80;;;2.20;99.90;;;;;;5053517;28;20080;-23
2023/03/08 09:18:07;;;;;;;7.57;3.73;;;2.30;99.90;;;;;;5052632;28;20136;-23
2023/03/08 09:20:32;;;;;;;8.23;3.33;;;2.30;99.90;;;;;;5054007;28;20049;-23
2023/03/08 09:22:58;;;;;;;10.17;2.90;;;2.40;99.90;;;;;;5052316;28;20083;-23
2023/03/08 09:25:24;;;;;;;4.90;3.13;;;2.50;99.90;;;;;;5052514;28;20053;-23
2023/03/08 09:27:50;;;;;;;7.60;3.53;;;2.70;99.90;;;;;;5052265;28;20049;-23
2023/03/08 09:30:17;;;;;;;8.35;3.22;;;2.80;99.90;;;;;;5035760;28;20110;-23
2023/03/08 09:32:43;;;;;;;5.55;2.70;;;2.90;99.90;;;;;;5052289;28;20049;-23
2023/03/08 09:35:09;;;;;;;8.13;3.20;;;;;;;;;;5035866;28;20060;-24
2023/03/08 09:37:36;;;;;;;8.60;2.97;;;3.30;99.90;;;;;;5052858;28;20052;-23
2023/03/08 09:40:08;;;;;;;5.72;3.03;;;3.50;99.90;;;;;;5053357;28;20048;-23
2023/03/08 09:42:34;;;;;;;6.00;2.63;;;3.60;99.90;;;;;;5053610;28;20399;-23
2023/03/08 09:45:23;;;;;;;5.28;2.53;;;3.70;99.90;;;;;;5053293;28;20376;-23
2023/03/08 09:48:03;;;;;;;4.63;2.20;;;3.70;99.90;;;;;;5053222;28;20050;-23
2023/03/08 09:50:43;;;;;;;8.38;2.63;;;3.80;99.90;;;;;;5053242;28;20049;-23
2023/03/08 09:53:08;;;;;;;5.90;2.53;;;3.90;99.90;;;;;;5053431;28;20041;-23
2023/03/08 09:55:36;;;;;;;3.92;2.00;;;3.90;99.90;;;;;;5053133;28;20056;-23
2023/03/08 09:58:37;;;;;;;7.88;2.60;;;3.90;99.90;;;;;;5053421;28;20498;-23
2023/03/08 10:01:12;;;;;;;4.63;1.88;;;4.00;99.90;;;;;;5051549;28;20049;-23
2023/03/08 10:04:02;;;;;;;6.05;2.20;;;4.10;99.90;;;;;;5053080;28;20080;-24
2023/03/08 10:06:49;;;;;;;5.20;1.85;;;4.10;99.90;;;;;;5052845;28;20049;-23
2023/03/08 10:09:40;;;;;;;4.00;1.83;;;4.40;99.90;;;;;;5053059;28;20110;-24
2023/03/08 10:12:37;;;;;;;4.70;1.52;;;4.60;99.90;;;;;;5053017;28;20467;-24
2023/03/08 10:15:13;;;;;;;6.85;1.80;;;4.90;99.90;;;;;;5053014;28;20049;-23
2023/03/08 10:17:49;;;;;;;6.13;1.23;;;4.90;99.90;;;;;;5052770;28;20045;-23
2023/03/08 10:20:28;;;;;;;4.05;1.20;;;5.10;99.90;;;;;;5053870;28;20437;-23
2023/03/08 10:23:09;;;;;;;5.43;1.67;;;5.30;99.90;;;;;;5055217;28;20124;-23
2023/03/08 10:25:35;;;;;;;3.05;0.93;;;5.50;99.90;;;;;;5056616;28;20156;-23
2023/03/08 10:28:02;;;;;;;4.97;1.35;;;5.70;99.90;;;;;;5056500;28;20124;-24
2023/03/08 10:30:35;;;;;;;2.95;1.08;;;5.80;99.90;;;;;;5057270;28;20504;-23
2023/03/08 10:33:06;;;;;;;4.88;0.82;;;6.00;99.90;;;;;;5056903;28;20124;-24
2023/03/08 10:35:36;;;;;;;6.00;1.27;;;6.10;99.90;;;;;;5056411;28;20049;-24
2023/03/08 10:38:15;;;;;;;2.90;0.98;;;6.20;99.90;;;;;;5056646;28;20048;-24
2023/03/08 10:40:41;;;;;;;2.95;0.90;;;6.40;99.90;;;;;;5056343;28;20479;-25
2023/03/08 10:43:12;;;;;;;3.40;1.08;;;6.50;99.90;;;;;;5056244;28;20037;-25
2023/03/08 10:45:38;;;;;;;2.53;1.33;;;7.10;99.90;;;;;;5056200;28;20049;-25
2023/03/08 10:48:05;;;;;;;7.38;1.52;;;6.90;99.90;;;;;;5056126;28;20049;-25
2023/03/08 10:50:34;;;;;;;1.73;0.88;;;7.00;99.90;;;;;;5056024;28;20052;-25
2023/03/08 10:53:19;;;;;;;2.72;1.05;;;7.00;99.90;;;;;;5055948;28;20047;-24
2023/03/08 10:55:50;;;;;;;3.67;1.10;;;7.20;99.90;;;;;;5056557;28;20490;-24
2023/03/08 10:58:37;;;;;;;2.53;0.82;;;7.10;99.90;;;;;;5055830;28;20479;-24
2023/03/08 11:01:26;;;;;;;7.53;1.30;;;6.80;99.90;;;;;;5056473;28;20136;-24
2023/03/08 11:04:16;;;;;;;4.53;1.25;;;6.80;99.90;;;;;;5056625;28;20048;-24
2023/03/08 11:06:43;;;;;;;5.95;1.70;;;6.80;99.90;;;;;;5054660;28;20044;-24
2023/03/08 11:09:25;;;;;;;2.17;0.95;;;6.80;99.90;;;;;;5055229;28;20037;-24
2023/03/08 11:11:51;;;;;;;4.22;0.95;;;6.90;99.90;;;;;;5055751;28;20053;-24
2023/03/08 11:14:17;;;;;;;5.00;1.10;;;7.10;99.90;;;;;;5055534;28;20433;-24
2023/03/08 11:16:46;;;;;;;3.70;0.93;;;7.20;99.90;;;;;;5055854;28;20056;-24
2023/03/08 11:19:44;;;;;;;1.95;0.63;;;7.30;99.90;;;;;;5055369;28;20049;-24
2023/03/08 11:22:41;;;;;;;3.25;0.60;;;7.40;99.90;;;;;;5064962;28;20437;-23
2023/03/08 11:25:22;;;;;;;3.58;0.73;;;7.30;99.90;;;;;;5057483;28;20510;-24
2023/03/08 11:27:51;;;;;;;2.85;1.58;;;7.50;99.90;;;;;;5056241;28;20052;-24
2023/03/08 11:30:39;;;;;;;4.70;1.65;;;7.70;99.90;;;;;;5055462;28;20136;-23
2023/03/08 11:33:19;;;;;;;4.40;0.50;;;7.90;99.90;;;;;;5055150;28;20041;-24
2023/03/08 11:36:01;;;;;;;2.17;0.28;;;7.90;99.90;;;;;;5055426;28;20049;-24
2023/03/08 11:38:29;;;;;;;3.80;0.75;;;;;;;;;;5055821;28;20045;-25
2023/03/08 11:41:14;;;;;;;5.65;0.50;;;8.20;99.90;;;;;;5060245;28;20049;-24
2023/03/08 11:43:49;;;;;;;3.22;0.95;;;8.50;99.90;;;;;;5075392;28;20098;-24
2023/03/08 11:46:33;;;;;;;4.57;0.70;;;8.50;99.90;;;;;;5065599;28;20114;-24
2023/03/08 11:49:25;;;;;;;7.57;1.08;;;8.40;99.90;;;;;;5054011;28;20056;-24
2023/03/08 11:52:00;;;;;;;3.20;1.27;;;8.30;99.90;;;;;;5067881;28;20076;-24
2023/03/08 11:54:58;;;;;;;5.55;0.93;;;8.30;99.90;;;;;;5075663;28;20080;-24
2023/03/08 11:57:28;;;;;;;5.85;1.50;;;8.30;99.90;;;;;;5058079;28;20040;-24
2023/03/08 11:59:59;;;;;;;6.53;3.15;;;8.10;99.90;;;;;;5056725;28;20056;-23
2023/03/08 12:02:36;;;;;;;4.53;1.50;;;7.70;99.90;;;;;;5054735;28;20067;-24
2023/03/08 12:05:30;;;;;;;3.20;1.13;;;7.30;99.90;;;;;;5054558;28;20057;-24
2023/03/08 12:08:17;;;;;;;6.00;2.03;;;7.20;99.90;;;;;;5058672;28;20399;-23
2023/03/08 12:10:49;;;;;;;5.15;1.13;;;7.00;99.90;;;;;;5057976;28;20040;-23
2023/03/08 12:13:37;;;;;;;4.07;0.90;;;6.80;99.90;;;;;;5074444;28;20051;-24
2023/03/08 12:16:25;;;;;;;3.53;1.20;;;6.80;99.90;;;;;;5072156;28;20051;-23
2023/03/08 12:18:57;;;;;;;5.32;1.00;;;6.90;99.90;;;;;;5074342;28;20072;-24
2023/03/08 12:21:42;;;;;;;6.55;1.35;;;7.10;99.90;;;;;;5062495;28;20513;-24
2023/03/08 12:24:43;;;;;;;4.85;0.88;;;6.80;99.90;;;;;;5054692;28;20399;-24
2023/03/08 12:27:17;;;;;;;3.17;0.68;;;6.60;99.90;;;;;;5053438;28;20055;-23
2023/03/08 12:29:48;;;;;;;4.88;0.80;;;6.10;99.90;;;;;;5054814;28;20055;-23
2023/03/08 12:32:15;;;;;;;6.03;0.60;;;6.00;99.90;;;;;;5055958;28;20064;-23
2023/03/08 12:34:44;;;;;;;6.55;0.88;;;5.80;99.90;;;;;;5036294;28;20107;-23
2023/03/08 12:37:36;;;;;;;2.45;0.70;;;5.80;99.90;;;;;;5053659;28;20049;-23
2023/03/08 12:40:23;;;;;;;2.80;0.73;;;6.00;99.90;;;;;;5054685;28;20049;-23
2023/03/08 12:42:49;;;;;;;8.15;3.55;;;6.00;99.90;;;;;;5054936;28;20052;-23
2023/03/08 12:45:18;;;;;;;4.40;1.80;;;6.10;99.90;;;;;;5054148;28;20044;-23
2023/03/08 12:48:05;;;;;;;5.75;0.65;;;6.00;99.90;;;;;;5053839;28;20052;-23
2023/03/08 12:50:56;;;;;;;1.48;0.50;;;6.00;99.90;;;;;;5054496;28;20040;-23
2023/03/08 12:53:47;;;;;;;2.90;0.55;;;6.10;99.90;;;;;;5053759;28;20052;-23
2023/03/08 12:56:24;;;;;;;3.72;0.80;;;6.20;99.90;;;;;;5054446;28;20045;-23
2023/03/08 12:58:59;;;;;;;3.72;0.73;;;6.40;99.90;;;;;;5053749;28;20049;-23
2023/03/08 13:01:28;;;;;;;4.00;0.88;;;6.60;99.90;;;;;;5062896;28;20089;-23
2023/03/08 13:03:54;;;;;;;4.00;0.90;;;6.60;99.90;;;;;;5074266;28;20040;-23
2023/03/08 13:06:24;;;;;;;2.00;0.52;;;6.60;99.90;;;;;;5068680;28;20403;-23